Time;durP1;ratioP1;P1;durP2;ratioP2;P2;SDS_P1;SDS_P2;PMS_P1;PMS_P2;Temp;Humidity;BMP_temperature;BMP_pressure;BME280_temperature;BME280_humidity;BME280_pressure;Samples;Min_cycle;Max_cycle;Signal;HPM_P1;HPM_P2
2022/06/05 00:00:04;;;;;;;8.87;8.07;;;;;;;;;;5020275;28;20174;-79
2022/06/05 00:02:33;;;;;;;8.70;8.03;;;;;;;;;;5018312;28;20198;-79
2022/06/05 00:05:02;;;;;;;8.60;7.67;;;;;;;;;;5032235;28;20237;-76
2022/06/05 00:07:30;;;;;;;8.63;7.87;;;;;;;;;;5016636;28;20178;-76
2022/06/05 00:10:01;;;;;;;8.67;7.97;;;;;;;;;;5014944;28;20173;-77
2022/06/05 00:12:38;;;;;;;8.47;7.73;;;;;;;;;;5016746;28;20179;-76
2022/06/05 00:15:04;;;;;;;9.07;8.00;;;;;;;;;;5032001;28;20188;-76
2022/06/05 00:17:29;;;;;;;8.87;8.17;;;;;;;;;;5016755;28;20182;-76
2022/06/05 00:19:55;;;;;;;8.53;7.83;;;;;;;;;;5022553;28;20266;-76
2022/06/05 00:22:21;;;;;;;8.80;7.90;;;;;;;;;;5025612;28;20183;-76
2022/06/05 00:24:46;;;;;;;9.60;8.07;;;;;;;;;;5028995;28;20197;-76
2022/06/05 00:27:29;;;;;;;7.87;7.17;;;;;;;;;;5023022;28;20175;-79
2022/06/05 00:30:12;;;;;;;8.60;7.97;;;;;;;;;;5029328;28;20265;-79
2022/06/05 00:32:39;;;;;;;7.67;7.03;;;;;;;;;;5031769;28;20169;-78
2022/06/05 00:35:09;;;;;;;8.27;7.57;;;;;;;;;;5019723;28;20177;-79
2022/06/05 00:37:42;;;;;;;8.43;7.77;;;;;;;;;;5028773;28;20185;-76
2022/06/05 00:40:10;;;;;;;8.93;8.13;;;;;;;;;;5018600;28;20236;-76
2022/06/05 00:42:36;;;;;;;8.77;8.00;;;;;;;;;;5010784;28;20185;-76
2022/06/05 00:45:06;;;;;;;9.73;8.80;;;;;;;;;;5016348;28;20197;-77
2022/06/05 00:47:32;;;;;;;10.47;8.60;;;;;;;;;;5012593;28;20230;-76
2022/06/05 00:49:59;;;;;;;8.90;8.03;;;;;;;;;;5008772;28;20197;-76
2022/06/05 00:52:27;;;;;;;8.00;7.23;;;;;;;;;;5022478;28;20242;-76
2022/06/05 00:54:52;;;;;;;7.87;7.27;;;;;;;;;;5006662;28;20178;-76
2022/06/05 00:57:18;;;;;;;7.77;7.07;;;;;;;;;;5008719;28;20184;-76
2022/06/05 00:59:45;;;;;;;9.10;8.30;;;;;;;;;;5013941;28;20179;-76
2022/06/05 01:02:11;;;;;;;8.23;7.43;;;;;;;;;;5007021;28;20194;-77
2022/06/05 01:04:38;;;;;;;9.13;8.27;;;;;;;;;;5012152;28;20190;-76
2022/06/05 01:07:04;;;;;;;9.23;7.97;;;;;;;;;;5013945;28;20270;-76
2022/06/05 01:09:29;;;;;;;7.70;7.13;;;;;;;;;;5013116;28;20217;-76
2022/06/05 01:12:01;;;;;;;7.33;6.63;;;;;;;;;;5014578;28;20209;-77
2022/06/05 01:14:26;;;;;;;7.50;6.90;;;;;;;;;;5008528;28;20277;-76
2022/06/05 01:17:15;;;;;;;8.10;7.40;;;;;;;;;;5010664;28;20269;-76
2022/06/05 01:19:43;;;;;;;7.13;6.63;;;;;;;;;;5024550;28;20178;-76
2022/06/05 01:22:27;;;;;;;7.53;7.00;;;;;;;;;;5006677;28;20183;-76
2022/06/05 01:25:14;;;;;;;7.13;6.43;;;;;;;;;;5025681;28;20247;-76
2022/06/05 01:27:41;;;;;;;9.07;6.80;;;;;;;;;;5008527;28;20181;-77
2022/06/05 01:30:10;;;;;;;8.20;7.50;;;;;;;;;;5012590;28;20208;-76
2022/06/05 01:32:38;;;;;;;7.13;6.57;;;;;;;;;;5008445;28;20182;-76
2022/06/05 01:35:17;;;;;;;7.33;6.53;;;;;;;;;;5024147;28;20177;-76
2022/06/05 01:37:50;;;;;;;6.60;6.10;;;;;;;;;;5015831;28;20226;-76
2022/06/05 01:40:19;;;;;;;7.00;6.40;;;;;;;;;;5011140;28;20500;-76
2022/06/05 01:42:49;;;;;;;6.70;6.20;;;;;;;;;;5011131;28;20178;-76
2022/06/05 01:45:21;;;;;;;7.50;6.90;;;;;;;;;;5008320;28;20299;-76
2022/06/05 01:47:48;;;;;;;8.40;7.60;;;;;;;;;;5004382;28;20233;-76
2022/06/05 01:50:16;;;;;;;8.67;7.90;;;;;;;;;;5017323;28;20202;-77
2022/06/05 01:52:49;;;;;;;7.50;6.90;;;;;;;;;;5018182;28;20217;-76
2022/06/05 01:55:37;;;;;;;6.90;6.37;;;;;;;;;;5016704;28;20178;-76
2022/06/05 01:58:04;;;;;;;7.77;7.07;;;;;;;;;;5023516;28;20301;-79
2022/06/05 02:00:30;;;;;;;7.97;7.20;;;;;;;;;;5004494;28;20185;-76
2022/06/05 02:03:06;;;;;;;8.67;7.87;;;;;;;;;;5007146;28;20189;-76
2022/06/05 02:05:44;;;;;;;8.67;7.87;;;;;;;;;;5003499;28;20281;-76
2022/06/05 02:08:13;;;;;;;9.60;8.80;;;;;;;;;;5014947;28;20196;-76
2022/06/05 02:10:45;;;;;;;9.77;8.87;;;;;;;;;;5009714;28;20182;-77
2022/06/05 02:13:10;;;;;;;9.33;8.37;;;;;;;;;;5011361;28;20273;-76
2022/06/05 02:15:36;;;;;;;8.57;7.87;;;;;;;;;;5006631;28;20464;-76
2022/06/05 02:18:01;;;;;;;9.77;8.87;;;;;;;;;;5021990;28;20180;-76
2022/06/05 02:20:27;;;;;;;9.07;8.10;;;;;;;;;;5005880;28;20178;-76
2022/06/05 02:22:53;;;;;;;9.33;8.40;;;;;;;;;;5021827;28;20182;-76
2022/06/05 02:25:19;;;;;;;8.80;7.97;;;;;;;;;;5010641;28;20251;-76
2022/06/05 02:27:45;;;;;;;9.60;8.60;;;;;;;;;;5010470;28;20199;-79
2022/06/05 02:30:11;;;;;;;9.80;8.53;;;;;;;;;;5003044;28;20173;-79
2022/06/05 02:32:56;;;;;;;10.13;9.27;;;;;;;;;;5007239;28;20261;-79
2022/06/05 02:35:35;;;;;;;8.83;8.07;;;;;;;;;;5011923;28;20190;-78
2022/06/05 02:38:00;;;;;;;8.93;8.13;;;;;;;;;;5004378;28;20261;-76
2022/06/05 02:40:32;;;;;;;9.77;8.83;;;;;;;;;;5021105;28;20206;-76
2022/06/05 02:43:00;;;;;;;9.37;8.47;;;;;;;;;;5029086;28;20188;-76
2022/06/05 02:45:26;;;;;;;10.53;8.97;;;;;;;;;;5007685;28;20207;-79
2022/06/05 02:48:00;;;;;;;9.10;8.30;;;;;;;;;;5005171;28;20522;-79
2022/06/05 02:50:32;;;;;;;10.00;9.10;;;;;;;;;;5026311;28;20201;-79
2022/06/05 02:53:02;;;;;;;9.10;8.27;;;;;;;;;;5006373;28;20173;-79
2022/06/05 02:55:27;;;;;;;9.50;8.60;;;;;;;;;;5020316;28;20204;-76
2022/06/05 02:57:53;;;;;;;8.60;7.83;;;;;;;;;;5025111;28;20208;-76
2022/06/05 03:00:22;;;;;;;9.20;8.37;;;;;;;;;;5009053;28;20206;-76
2022/06/05 03:05:32;;;;;;;9.67;8.87;;;;;;;;;;5008384;28;20240;-79
2022/06/05 03:07:58;;;;;;;10.80;9.77;;;;;;;;;;5010674;28;20197;-79
2022/06/05 03:10:23;;;;;;;17.03;8.87;;;;;;;;;;5015497;28;20184;-79
2022/06/05 03:12:48;;;;;;;10.20;9.37;;;;;;;;;;5018344;28;20176;-78
2022/06/05 03:15:15;;;;;;;9.87;8.87;;;;;;;;;;5011400;28;20276;-76
2022/06/05 03:17:40;;;;;;;9.83;9.03;;;;;;;;;;5007127;28;20232;-77
2022/06/05 03:20:06;;;;;;;10.93;9.93;;;;;;;;;;5011351;28;20326;-79
2022/06/05 03:22:31;;;;;;;9.70;8.90;;;;;;;;;;5001202;28;20217;-79
2022/06/05 03:24:56;;;;;;;11.70;10.70;;;;;;;;;;5007885;28;20405;-79
2022/06/05 03:27:21;;;;;;;10.70;9.77;;;;;;;;;;5009114;28;20253;-79
2022/06/05 03:29:47;;;;;;;10.93;10.10;;;;;;;;;;5008103;28;20216;-79
2022/06/05 03:32:13;;;;;;;11.17;10.20;;;;;;;;;;5009916;28;20180;-77
2022/06/05 03:34:38;;;;;;;11.03;10.07;;;;;;;;;;5005893;28;20186;-77
2022/06/05 03:37:04;;;;;;;11.93;10.73;;;;;;;;;;5008631;28;20202;-77
2022/06/05 03:39:30;;;;;;;11.50;10.50;;;;;;;;;;5004816;28;20182;-77
2022/06/05 03:41:55;;;;;;;12.23;11.23;;;;;;;;;;5008792;28;20192;-77
2022/06/05 03:44:20;;;;;;;12.63;11.40;;;;;;;;;;5010956;28;20200;-79
2022/06/05 03:46:45;;;;;;;12.20;11.10;;;;;;;;;;5002407;28;20224;-79
2022/06/05 03:49:10;;;;;;;10.23;9.37;;;;;;;;;;5009082;28;20188;-79
2022/06/05 03:51:36;;;;;;;11.50;9.10;;;;;;;;;;5004647;28;20169;-77
2022/06/05 03:54:02;;;;;;;13.87;8.37;;;;;;;;;;5006573;28;20184;-76
2022/06/05 03:56:28;;;;;;;9.33;8.43;;;;;;;;;;5005181;28;20178;-76
2022/06/05 03:58:54;;;;;;;9.63;8.77;;;;;;;;;;5005136;28;20273;-76
2022/06/05 04:01:20;;;;;;;10.90;10.00;;;;;;;;;;5016549;28;20177;-76
2022/06/05 04:03:45;;;;;;;10.93;9.67;;;;;;;;;;5004682;28;20288;-76
2022/06/05 04:06:12;;;;;;;11.03;9.97;;;;;;;;;;5010101;28;20203;-76
2022/06/05 04:08:38;;;;;;;9.70;8.90;;;;;;;;;;5002848;28;20171;-76
2022/06/05 04:11:07;;;;;;;11.53;10.50;;;;;;;;;;5011163;28;20245;-76
2022/06/05 04:13:33;;;;;;;12.57;10.70;;;;;;;;;;5001059;28;20182;-76
2022/06/05 04:15:58;;;;;;;11.03;10.03;;;;;;;;;;5004566;28;20189;-76
2022/06/05 04:18:23;;;;;;;10.73;9.73;;;;;;;;;;5025927;28;20177;-76
2022/06/05 04:20:48;;;;;;;11.07;10.17;;;;;;;;;;5015545;28;20183;-76
2022/06/05 04:23:13;;;;;;;9.90;9.10;;;;;;;;;;5008533;28;20177;-78
2022/06/05 04:25:41;;;;;;;10.23;9.33;;;;;;;;;;5026671;28;20169;-78
2022/06/05 04:28:09;;;;;;;11.30;10.33;;;;;;;;;;5009964;28;20165;-78
2022/06/05 04:30:35;;;;;;;11.60;10.60;;;;;;;;;;5009579;28;20182;-78
2022/06/05 04:33:00;;;;;;;11.57;10.50;;;;;;;;;;5005821;28;20402;-78
2022/06/05 04:35:26;;;;;;;13.60;10.97;;;;;;;;;;5010209;28;20352;-78
2022/06/05 04:37:51;;;;;;;11.87;10.80;;;;;;;;;;5006293;28;20271;-79
2022/06/05 04:40:16;;;;;;;12.17;10.97;;;;;;;;;;5009803;28;20232;-78
2022/06/05 04:42:41;;;;;;;13.03;11.73;;;;;;;;;;5013545;28;20185;-78
2022/06/05 04:45:07;;;;;;;13.60;12.30;;;;;;;;;;5020114;28;20287;-78
2022/06/05 04:47:33;;;;;;;13.03;11.73;;;;;;;;;;5014732;28;20227;-78
2022/06/05 04:49:58;;;;;;;12.60;11.50;;;;;;;;;;5007906;28;20201;-79
2022/06/05 04:52:23;;;;;;;13.57;12.37;;;;;;;;;;5022389;28;20214;-79
2022/06/05 04:54:48;;;;;;;13.83;12.60;;;;;;;;;;5016357;28;20175;-79
2022/06/05 04:57:14;;;;;;;13.27;12.07;;;;;;;;;;5031771;28;20271;-78
2022/06/05 04:59:39;;;;;;;11.63;10.63;;;;;;;;;;5016915;28;20221;-79
2022/06/05 05:02:04;;;;;;;12.33;11.10;;;;;;;;;;5028382;28;20185;-79
2022/06/05 05:04:30;;;;;;;11.67;10.63;;;;;;;;;;5011641;28;20322;-79
2022/06/05 05:06:55;;;;;;;11.00;10.00;;;;;;;;;;5039233;28;20183;-77
2022/06/05 05:09:20;;;;;;;12.27;10.03;;;;;;;;;;5040510;28;20185;-78
2022/06/05 05:11:45;;;;;;;10.77;9.30;;;;;;;;;;5021955;28;20179;-77
2022/06/05 05:14:11;;;;;;;9.70;8.90;;;;;;;;;;5012755;28;20187;-77
2022/06/05 05:16:36;;;;;;;9.30;8.50;;;;;;;;;;5011934;28;20171;-77
2022/06/05 05:19:01;;;;;;;10.47;9.47;;;;;;;;;;5009824;28;20264;-78
2022/06/05 05:21:27;;;;;;;11.23;10.13;;;;;;;;;;5010388;28;20194;-77
2022/06/05 05:23:53;;;;;;;11.33;10.30;;;;;;;;;;5009723;28;20205;-77
2022/06/05 05:26:20;;;;;;;11.93;10.83;;;;;;;;;;5006364;28;20178;-77
2022/06/05 05:28:46;;;;;;;10.67;9.67;;;;;;;;;;4999362;28;20551;-77
2022/06/05 05:31:17;;;;;;;10.60;9.60;;;;;;;;;;5006458;28;20191;-77
2022/06/05 05:33:43;;;;;;;13.80;10.23;;;;;;;;;;5010654;28;20194;-77
2022/06/05 05:36:11;;;;;;;20.83;10.93;;;;;;;;;;5033338;28;20185;-77
2022/06/05 05:38:37;;;;;;;32.93;10.97;;;;;;;;;;5010640;28;20180;-77
2022/06/05 05:43:46;;;;;;;16.03;10.20;;;;;;;;;;5003690;28;20315;-77
2022/06/05 05:46:12;;;;;;;11.43;10.43;;;;;;;;;;5038476;28;20279;-77
2022/06/05 05:48:38;;;;;;;10.93;9.83;;;;;;;;;;5017223;28;20244;-77
2022/06/05 05:51:08;;;;;;;10.53;9.63;;;;;;;;;;5009963;28;20205;-77
2022/06/05 05:53:34;;;;;;;11.23;10.33;;;;;;;;;;5005150;28;20181;-77
2022/06/05 05:56:05;;;;;;;10.13;9.27;;;;;;;;;;5003014;28;20181;-77
2022/06/05 05:58:30;;;;;;;11.13;10.20;;;;;;;;;;5012743;28;20202;-77
2022/06/05 06:01:05;;;;;;;10.60;9.80;;;;;;;;;;5005288;28;20180;-77
2022/06/05 06:03:31;;;;;;;10.00;9.10;;;;;;;;;;5006918;28;20180;-77
2022/06/05 06:05:57;;;;;;;10.30;9.10;;;;;;;;;;5016573;28;20169;-76
2022/06/05 06:08:22;;;;;;;9.23;8.33;;;;;;;;;;5011301;28;20198;-77
2022/06/05 06:10:47;;;;;;;10.40;9.27;;;;;;;;;;5012384;28;20178;-77
2022/06/05 06:13:13;;;;;;;10.27;9.27;;;;;;;;;;5009778;28;20527;-77
2022/06/05 06:15:38;;;;;;;10.30;9.30;;;;;;;;;;5007135;28;20182;-77
2022/06/05 06:18:03;;;;;;;8.83;8.03;;;;;;;;;;5010723;28;20173;-77
2022/06/05 06:20:28;;;;;;;9.40;8.50;;;;;;;;;;5008299;28;20200;-77
2022/06/05 06:22:53;;;;;;;9.03;8.13;;;;;;;;;;4999230;28;20171;-77
2022/06/05 06:25:19;;;;;;;8.90;8.03;;;;;;;;;;5011205;28;20204;-77
2022/06/05 06:27:44;;;;;;;8.17;7.33;;;;;;;;;;5006650;28;20282;-77
2022/06/05 06:30:09;;;;;;;9.40;8.17;;;;;;;;;;5004233;28;20171;-77
2022/06/05 06:32:35;;;;;;;8.73;7.93;;;;;;;;;;5005387;28;20365;-77
2022/06/05 06:35:00;;;;;;;8.90;8.20;;;;;;;;;;5010759;28;20230;-77
2022/06/05 06:37:26;;;;;;;8.97;6.97;;;;;;;;;;5004704;28;20177;-77
2022/06/05 06:39:51;;;;;;;7.93;7.30;;;;;;;;;;5008015;28;20215;-77
2022/06/05 06:42:16;;;;;;;8.60;7.80;;;;;;;;;;5008907;28;20178;-77
2022/06/05 06:44:41;;;;;;;8.00;7.30;;;;;;;;;;5009836;28;20221;-77
2022/06/05 06:47:07;;;;;;;8.23;7.53;;;;;;;;;;5010317;28;20238;-77
2022/06/05 06:49:33;;;;;;;7.63;6.93;;;;;;;;;;5012601;28;20201;-77
2022/06/05 06:51:59;;;;;;;10.67;7.03;;;;;;;;;;5006483;28;20263;-77
2022/06/05 06:54:24;;;;;;;10.13;8.63;;;;;;;;;;5008573;28;20177;-77
2022/06/05 06:56:50;;;;;;;7.80;7.10;;;;;;;;;;5006005;28;20269;-77
2022/06/05 06:59:15;;;;;;;8.60;7.87;;;;;;;;;;5007715;28;20211;-77
2022/06/05 07:01:41;;;;;;;8.03;7.43;;;;;;;;;;5004419;28;20184;-77
2022/06/05 07:04:06;;;;;;;8.47;7.73;;;;;;;;;;5010185;28;20272;-77
2022/06/05 07:06:31;;;;;;;8.93;8.13;;;;;;;;;;5026102;28;20480;-77
2022/06/05 07:08:56;;;;;;;8.13;7.43;;;;;;;;;;5011423;28;20256;-77
2022/06/05 07:11:22;;;;;;;8.37;7.57;;;;;;;;;;5011098;28;20186;-77
2022/06/05 07:13:48;;;;;;;7.57;6.87;;;;;;;;;;5008909;28;20183;-77
2022/06/05 07:16:14;;;;;;;9.17;7.83;;;;;;;;;;5005786;28;20183;-77
2022/06/05 07:18:39;;;;;;;7.87;7.17;;;;;;;;;;5009966;28;20176;-77
2022/06/05 07:21:09;;;;;;;7.77;7.07;;;;;;;;;;5006203;28;20195;-77
2022/06/05 07:23:34;;;;;;;7.57;6.97;;;;;;;;;;5002160;28;20207;-77
2022/06/05 07:25:59;;;;;;;8.77;6.83;;;;;;;;;;5008148;28;20750;-77
2022/06/05 07:28:25;;;;;;;7.73;7.07;;;;;;;;;;5004288;28;20177;-78
2022/06/05 07:30:51;;;;;;;8.17;7.43;;;;;;;;;;5010220;28;20252;-77
2022/06/05 07:33:17;;;;;;;8.33;7.63;;;;;;;;;;5014641;28;20171;-77
2022/06/05 07:35:42;;;;;;;8.17;7.37;;;;;;;;;;5006338;28;20271;-77
2022/06/05 07:38:08;;;;;;;6.90;6.30;;;;;;;;;;5009029;28;20243;-77
2022/06/05 07:40:37;;;;;;;10.93;7.27;;;;;;;;;;5005123;28;20182;-77
2022/06/05 07:43:02;;;;;;;8.13;7.43;;;;;;;;;;5029254;28;20185;-78
2022/06/05 07:45:27;;;;;;;8.37;7.73;;;;;;;;;;5003523;28;20196;-77
2022/06/05 07:47:53;;;;;;;7.27;6.67;;;;;;;;;;5004098;28;20226;-78
2022/06/05 07:50:18;;;;;;;9.00;8.23;;;;;;;;;;5009972;28;20219;-78
2022/06/05 07:55:28;;;;;;;9.33;8.53;;;;;;;;;;5007037;28;20270;-77
2022/06/05 07:57:53;;;;;;;41.83;25.80;;;;;;;;;;5008455;28;20200;-77
2022/06/05 08:00:21;;;;;;;27.17;18.13;;;;;;;;;;5002438;28;20176;-78
2022/06/05 08:02:47;;;;;;;14.47;9.80;;;;;;;;;;5003779;28;20179;-78
2022/06/05 08:05:13;;;;;;;11.67;10.27;;;;;;;;;;5007517;28;20213;-77
2022/06/05 08:07:38;;;;;;;18.87;13.10;;;;;;;;;;5010872;28;20172;-77
2022/06/05 08:10:04;;;;;;;11.50;10.00;;;;;;;;;;5010097;28;20174;-77
2022/06/05 08:12:32;;;;;;;16.47;12.13;;;;;;;;;;5009335;28;20203;-78
2022/06/05 08:14:57;;;;;;;17.77;13.17;;;;;;;;;;5014482;28;20184;-77
2022/06/05 08:17:33;;;;;;;10.23;9.23;;;;;;;;;;5009642;28;20210;-78
2022/06/05 08:19:58;;;;;;;13.70;10.63;;;;;;;;;;5014772;28;20186;-78
2022/06/05 08:22:24;;;;;;;9.07;7.73;;;;;;;;;;4992330;28;20171;-78
2022/06/05 08:24:49;;;;;;;9.53;8.60;;;;;;;;;;5015635;28;20284;-77
2022/06/05 08:27:16;;;;;;;11.93;10.53;;;;;;;;;;5026664;28;20191;-78
2022/06/05 08:29:41;;;;;;;13.10;10.77;;;;;;;;;;5012245;28;20219;-78
2022/06/05 08:32:07;;;;;;;16.77;12.13;;;;;;;;;;5008332;28;20166;-78
2022/06/05 08:34:32;;;;;;;8.53;7.80;;;;;;;;;;5012527;28;20275;-78
2022/06/05 08:42:31;;;;;;;7.80;7.10;;;;;;;;;;5008560;28;20192;-77
2022/06/05 08:44:58;;;;;;;7.63;6.93;;;;;;;;;;5014478;28;20289;-77
2022/06/05 08:47:29;;;;;;;8.33;7.47;;;;;;;;;;5021579;28;20238;-78
2022/06/05 08:49:57;;;;;;;10.87;7.97;;;;;;;;;;5010103;28;20197;-78
2022/06/05 08:52:48;;;;;;;10.40;8.77;;;;;;;;;;5027094;28;20178;-77
2022/06/05 08:55:21;;;;;;;9.63;8.40;;;;;;;;;;5021493;28;20203;-78
2022/06/05 08:57:50;;;;;;;11.40;10.00;;;;;;;;;;5010455;28;20195;-78
2022/06/05 09:00:23;;;;;;;11.47;10.37;;;;;;;;;;5011110;28;20176;-78
2022/06/05 09:03:00;;;;;;;11.27;9.03;;;;;;;;;;5012946;28;20212;-78
2022/06/05 09:05:28;;;;;;;13.33;8.23;;;;;;;;;;5028530;28;20201;-78
2022/06/05 09:07:55;;;;;;;9.73;7.87;;;;;;;;;;5011832;28;20258;-78
2022/06/05 09:10:26;;;;;;;9.20;8.23;;;;;;;;;;5028467;28;20185;-78
2022/06/05 09:12:57;;;;;;;8.00;7.23;;;;;;;;;;5018082;28;20186;-78
2022/06/05 09:15:31;;;;;;;7.40;6.70;;;;;;;;;;5017660;28;20205;-78
2022/06/05 09:17:58;;;;;;;7.67;7.00;;;;;;;;;;5024216;28;20178;-78
2022/06/05 09:20:26;;;;;;;9.03;8.23;;;;;;;;;;5029173;28;20187;-78
2022/06/05 09:22:57;;;;;;;8.13;6.40;;;;;;;;;;5004440;28;20185;-78
2022/06/05 09:25:31;;;;;;;8.03;7.23;;;;;;;;;;5025781;28;20212;-78
2022/06/05 09:28:14;;;;;;;7.43;6.73;;;;;;;;;;5024836;28;20176;-78
2022/06/05 09:30:45;;;;;;;7.27;6.37;;;;;;;;;;5003991;28;20184;-78
2022/06/05 09:33:15;;;;;;;7.30;6.57;;;;;;;;;;5011955;28;20255;-78
2022/06/05 09:35:43;;;;;;;7.60;6.90;;;;;;;;;;5008109;28;20184;-78
2022/06/05 09:38:22;;;;;;;8.63;7.50;;;;;;;;;;5010318;28;20181;-78
2022/06/05 09:40:59;;;;;;;8.07;7.37;;;;;;;;;;5008998;28;20186;-78
2022/06/05 09:43:35;;;;;;;8.33;7.43;;;;;;;;;;4998853;28;20273;-78
2022/06/05 09:46:19;;;;;;;10.27;8.27;;;;;;;;;;5010226;28;20173;-78
2022/06/05 09:49:04;;;;;;;9.50;8.50;;;;;;;;;;5024840;28;20320;-78
2022/06/05 09:51:29;;;;;;;9.30;8.13;;;;;;;;;;5022159;28;20179;-79
2022/06/05 09:54:00;;;;;;;9.30;8.13;;;;;;;;;;5007808;28;20267;-78
2022/06/05 09:59:36;;;;;;;10.83;9.70;;;;;;;;;;5009801;28;20193;-78
2022/06/05 10:02:04;;;;;;;10.70;9.20;;;;;;;;;;5006415;28;20273;-78
2022/06/05 10:04:30;;;;;;;10.10;9.20;;;;;;;;;;5018176;28;20236;-78
2022/06/05 10:06:58;;;;;;;10.23;9.33;;;;;;;;;;5012910;28;20270;-78
2022/06/05 10:09:25;;;;;;;9.40;8.60;;;;;;;;;;5012826;28;20179;-78
2022/06/05 10:11:59;;;;;;;11.40;8.97;;;;;;;;;;5012061;28;20214;-78
2022/06/05 10:14:34;;;;;;;10.20;9.27;;;;;;;;;;5009716;28;20182;-78
2022/06/05 10:17:05;;;;;;;10.37;9.43;;;;;;;;;;5005120;28;20453;-78
2022/06/05 10:19:40;;;;;;;9.83;9.03;;;;;;;;;;5011107;28;20197;-78
2022/06/05 10:22:25;;;;;;;9.87;8.80;;;;;;;;;;5006525;28;20187;-78
2022/06/05 10:25:00;;;;;;;9.63;8.73;;;;;;;;;;5008822;28;20211;-77
2022/06/05 10:27:26;;;;;;;10.40;9.00;;;;;;;;;;5009987;28;20186;-78
2022/06/05 10:29:55;;;;;;;8.55;7.72;;;;;;;;;;5026865;28;20233;-78
2022/06/05 10:32:43;;;;;;;8.43;7.70;;;;;;;;;;5020648;28;20175;-78
2022/06/05 10:35:16;;;;;;;8.37;7.60;;;;;;;;;;5000117;28;20191;-78
2022/06/05 10:37:51;;;;;;;7.57;6.73;;;;;;;;;;5015812;28;20186;-78
2022/06/05 10:40:20;;;;;;;8.03;7.33;;;;;;;;;;5025794;28;20207;-78
2022/06/05 10:42:52;;;;;;;7.27;6.57;;;;;;;;;;5010397;28;20183;-78
2022/06/05 10:45:28;;;;;;;6.97;6.43;;;;;;;;;;5013547;28;20317;-77
2022/06/05 10:47:56;;;;;;;7.32;6.55;;;;;;;;;;5005421;28;20227;-78
2022/06/05 10:50:27;;;;;;;6.83;6.17;;;;;;;;;;5011901;28;20191;-78
2022/06/05 10:53:25;;;;;;;7.97;6.40;;;;;;;;;;5005802;28;20183;-78
2022/06/05 10:56:11;;;;;;;7.82;7.15;;;;;;;;;;4951685;28;20191;-77
2022/06/05 10:58:39;;;;;;;7.43;6.63;;;;;;;;;;5011372;28;20213;-78
2022/06/05 11:01:23;;;;;;;7.25;6.63;;;;;;;;;;5026115;28;20179;-78
2022/06/05 11:03:56;;;;;;;7.68;7.07;;;;;;;;;;5007265;28;20202;-78
2022/06/05 11:06:28;;;;;;;6.93;6.33;;;;;;;;;;5014631;28;20182;-77
2022/06/05 11:09:12;;;;;;;6.40;5.90;;;;;;;;;;5006534;28;20217;-78
2022/06/05 11:14:40;;;;;;;5.82;5.32;;;;;;;;;;5008220;28;20318;-78
2022/06/05 11:17:35;;;;;;;6.17;5.60;;;;;;;;;;5020844;28;20439;-78
2022/06/05 11:20:06;;;;;;;6.50;6.00;;;;;;;;;;4947697;28;20196;-77
2022/06/05 11:22:32;;;;;;;5.60;5.05;;;;;;;;;;4999162;28;20187;-77
2022/06/05 11:25:12;;;;;;;8.13;5.53;;;;;;;;;;4997891;28;20208;-78
2022/06/05 11:27:51;;;;;;;6.87;5.53;;;;;;;;;;5005329;28;20175;-78
2022/06/05 11:30:25;;;;;;;6.75;4.97;;;;;;;;;;5017928;28;20180;-78
2022/06/05 11:32:54;;;;;;;5.57;5.18;;;;;;;;;;5009782;28;20189;-78
2022/06/05 11:35:34;;;;;;;6.03;4.75;;;;;;;;;;5005827;28;20199;-78
2022/06/05 11:37:59;;;;;;;6.18;5.57;;;;;;;;;;5014107;28;20182;-78
2022/06/05 11:40:45;;;;;;;5.80;5.30;;;;;;;;;;5007490;28;20187;-78
2022/06/05 11:43:26;;;;;;;4.97;4.43;;;;;;;;;;5001204;28;20174;-78
2022/06/05 11:45:51;;;;;;;5.00;4.20;;;;;;;;;;5006824;28;20194;-78
2022/06/05 11:48:27;;;;;;;5.15;4.60;;;;;;;;;;5004058;28;20288;-78
2022/06/05 11:50:55;;;;;;;5.43;4.20;;;;;;;;;;5008953;28;20195;-78
2022/06/05 11:53:45;;;;;;;4.93;4.10;;;;;;;;;;5003946;28;20180;-79
2022/06/05 11:56:29;;;;;;;4.47;4.07;;;;;;;;;;5018562;28;20214;-78
2022/06/05 11:58:58;;;;;;;3.70;3.35;;;;;;;;;;5015293;28;20238;-78
2022/06/05 12:01:26;;;;;;;4.53;4.13;;;;;;;;;;5014727;28;20186;-78
2022/06/05 12:03:54;;;;;;;5.15;4.07;;;;;;;;;;5011780;28;20342;-78
2022/06/05 12:06:38;;;;;;;4.47;4.07;;;;;;;;;;5014120;28;20247;-78
2022/06/05 12:09:18;;;;;;;6.03;4.35;;;;;;;;;;5031983;28;20183;-78
2022/06/05 12:11:53;;;;;;;4.10;3.75;;;;;;;;;;5007585;28;20305;-79
2022/06/05 12:14:21;;;;;;;5.10;3.85;;;;;;;;;;5011402;28;20179;-78
2022/06/05 12:16:47;;;;;;;5.75;4.35;;;;;;;;;;5017124;28;20184;-78
2022/06/05 12:19:19;;;;;;;3.92;3.63;;;;;;;;;;5009928;28;20178;-78
2022/06/05 12:21:44;;;;;;;6.97;4.30;;;;;;;;;;5034172;28;20194;-78
2022/06/05 12:24:22;;;;;;;3.95;3.65;;;;;;;;;;5019676;28;20192;-78
2022/06/05 12:26:51;;;;;;;4.30;3.90;;;;;;;;;;5026425;28;20175;-78
2022/06/05 12:29:19;;;;;;;5.82;4.00;;;;;;;;;;5007287;28;20200;-78
2022/06/05 12:31:47;;;;;;;4.37;3.97;;;;;;;;;;5012886;28;20190;-78
2022/06/05 12:34:50;;;;;;;6.30;4.38;;;;;;;;;;5006264;28;20184;-78
2022/06/05 12:37:21;;;;;;;4.07;3.67;;;;;;;;;;4968021;28;20476;-78
2022/06/05 12:39:48;;;;;;;4.25;3.85;;;;;;;;;;4996745;28;20191;-77
2022/06/05 12:42:25;;;;;;;3.53;3.22;;;;;;;;;;5009000;28;20194;-78
2022/06/05 12:44:52;;;;;;;3.97;3.67;;;;;;;;;;5025332;28;20210;-77
2022/06/05 12:47:20;;;;;;;4.95;3.63;;;;;;;;;;5004753;28;20302;-78
2022/06/05 12:50:04;;;;;;;4.25;3.88;;;;;;;;;;5008786;28;20199;-78
2022/06/05 12:52:44;;;;;;;5.28;4.05;;;;;;;;;;5007301;28;20226;-78
2022/06/05 12:55:33;;;;;;;4.25;3.53;;;;;;;;;;5005721;28;20184;-78
2022/06/05 12:58:12;;;;;;;4.43;3.30;;;;;;;;;;4998792;28;20199;-78
2022/06/05 13:00:54;;;;;;;3.72;3.30;;;;;;;;;;5002809;28;20210;-78
2022/06/05 13:03:24;;;;;;;3.85;3.50;;;;;;;;;;5007043;28;20186;-78
2022/06/05 13:05:56;;;;;;;4.80;3.15;;;;;;;;;;5012023;28;20302;-77
2022/06/05 13:08:27;;;;;;;5.88;3.67;;;;;;;;;;5011896;28;20183;-78
2022/06/05 13:11:15;;;;;;;3.30;3.00;;;;;;;;;;5011772;28;20182;-78
2022/06/05 13:13:52;;;;;;;3.67;2.65;;;;;;;;;;5006667;28;20176;-78
2022/06/05 13:16:40;;;;;;;3.38;3.00;;;;;;;;;;5010924;28;20242;-78
2022/06/05 13:19:18;;;;;;;3.85;2.67;;;;;;;;;;5011396;28;20205;-77
2022/06/05 13:21:52;;;;;;;2.83;2.47;;;;;;;;;;5002466;28;20211;-77
2022/06/05 13:24:33;;;;;;;6.10;3.23;;;;;;;;;;5005948;28;20202;-77
2022/06/05 13:27:17;;;;;;;4.50;2.87;;;;;;;;;;5012248;28;20189;-77
2022/06/05 13:29:45;;;;;;;3.20;2.90;;;;;;;;;;5009380;28;20174;-78
2022/06/05 13:32:29;;;;;;;3.20;2.90;;;;;;;;;;5011031;28;20182;-77
2022/06/05 13:34:57;;;;;;;4.13;3.47;;;;;;;;;;5024334;28;20202;-78
2022/06/05 13:37:34;;;;;;;3.00;2.70;;;;;;;;;;5011721;28;20190;-78
2022/06/05 13:40:17;;;;;;;3.50;3.00;;;;;;;;;;5021673;28;20238;-78
2022/06/05 13:42:47;;;;;;;4.90;3.33;;;;;;;;;;5013025;28;20179;-78
2022/06/05 13:45:28;;;;;;;3.00;2.80;;;;;;;;;;5010817;28;20229;-77
2022/06/05 13:47:58;;;;;;;4.20;3.40;;;;;;;;;;5011485;28;20246;-78
2022/06/05 13:50:40;;;;;;;4.47;3.67;;;;;;;;;;5012524;28;20203;-78
2022/06/05 13:53:05;;;;;;;7.32;3.28;;;;;;;;;;5025067;28;20184;-78
2022/06/05 13:55:36;;;;;;;3.90;2.85;;;;;;;;;;5012052;28;20197;-77
2022/06/05 13:58:12;;;;;;;3.92;2.92;;;;;;;;;;5018505;28;20219;-78
2022/06/05 14:00:56;;;;;;;5.43;2.85;;;;;;;;;;5023950;28;20194;-78
2022/06/05 14:03:36;;;;;;;4.72;3.45;;;;;;;;;;5006146;28;20176;-78
2022/06/05 14:06:04;;;;;;;3.97;2.70;;;;;;;;;;5017290;28;20183;-78
2022/06/05 14:08:37;;;;;;;4.90;4.50;;;;;;;;;;5010762;28;20222;-78
2022/06/05 14:11:06;;;;;;;8.27;7.37;;;;;;;;;;5009446;28;20179;-78
2022/06/05 14:13:58;;;;;;;5.03;3.30;;;;;;;;;;5003311;28;20180;-78
2022/06/05 14:16:32;;;;;;;2.70;2.50;;;;;;;;;;5002879;28;20195;-78
2022/06/05 14:18:59;;;;;;;3.55;3.25;;;;;;;;;;5011004;28;20270;-78
2022/06/05 14:21:31;;;;;;;3.45;2.42;;;;;;;;;;5010397;28;20242;-78
2022/06/05 14:23:57;;;;;;;2.75;2.53;;;;;;;;;;5010320;28;20213;-78
2022/06/05 14:26:37;;;;;;;2.67;2.47;;;;;;;;;;5024098;28;20170;-77
2022/06/05 14:29:03;;;;;;;2.20;2.00;;;;;;;;;;5009204;28;20262;-78
2022/06/05 14:31:29;;;;;;;1.80;1.70;;;;;;;;;;5005818;28;20183;-78
2022/06/05 14:33:58;;;;;;;3.28;2.03;;;;;;;;;;5002968;28;20195;-78
2022/06/05 14:36:44;;;;;;;3.87;1.83;;;;;;;;;;5020854;28;20205;-78
2022/06/05 14:39:20;;;;;;;2.58;1.70;;;;;;;;;;5003542;28;20280;-78
2022/06/05 14:41:52;;;;;;;3.17;2.00;;;;;;;;;;5009608;28;20191;-78
2022/06/05 14:44:26;;;;;;;4.57;2.30;;;;;;;;;;5005170;28;20207;-78
2022/06/05 14:46:56;;;;;;;2.90;2.47;;;;;;;;;;5010387;28;20200;-77
2022/06/05 14:49:35;;;;;;;3.63;2.17;;;;;;;;;;5022960;28;20202;-77
2022/06/05 14:52:19;;;;;;;2.43;2.00;;;;;;;;;;5005831;28;20225;-78
2022/06/05 14:57:52;;;;;;;2.20;2.00;;;;;;;;;;5028594;28;20229;-77
2022/06/05 15:00:21;;;;;;;2.33;2.00;;;;;;;;;;5028898;28;20184;-78
2022/06/05 15:02:49;;;;;;;2.17;1.97;;;;;;;;;;5013293;28;20180;-77
2022/06/05 15:05:23;;;;;;;2.23;2.03;;;;;;;;;;5006753;28;20213;-77
2022/06/05 15:08:00;;;;;;;2.83;1.90;;;;;;;;;;5009489;28;20183;-77
2022/06/05 15:10:46;;;;;;;1.60;1.50;;;;;;;;;;5021732;28;20190;-78
2022/06/05 15:13:22;;;;;;;1.83;1.70;;;;;;;;;;5008735;28;20191;-77
2022/06/05 15:16:11;;;;;;;1.60;1.50;;;;;;;;;;5005189;28;20192;-77
2022/06/05 15:18:37;;;;;;;1.60;1.50;;;;;;;;;;5033188;28;20276;-77